Chorlton cum Hardy, United Kingdom
Current Conditions -  °F | °C
As of 4:50 PM on Friday 28 Nov 2014 (Local Time) from EGCC Reporting Station
Broken Clouds Broken Clouds  
Wind Chill: 52°   Ceiling: 1600
Heat Index: 52°   Visibility: 6mi
Dew Point: 50°   Wind: 10mph
Humidity: 94%   Direction: 80°E
Pressure: 29.71"   Gusts: NA
Location:  53.44°N, 2.26°W
Report Text: EGCC 281650Z 08009KT 9000 FEW008 BKN016 11/10 Q1006 TEMPO BKN010
Loading
Personal Weather Stations






























Interactive Weather Map New forecast layout! Learn more

10-Day Weather Forecast

Advertisements
Track Severe Weather on mobile